Data for 12/19/2014

Time Sea-Level Adjusted Pressure Absolute Pressure Temperature Relative Humidity Dew Point   
(mb) (inHg) (mb) (inHg) (C) (F) (%) (C) (F)
00:05 1017 30.03 846 24.98 0.3 32.6 71 -4.3 24.3
00:10 1017 30.03 846 24.98 0.3 32.5 70 -4.5 23.9
00:15 1017 30.03 846 24.98 0.3 32.5 68 -4.9 23.2
00:20 1017 30.03 846 24.98 0.4 32.6 68 -4.9 23.1
00:25 1017 30.03 846 24.98 0.3 32.5 71 -4.3 24.2
00:30 1017 30.03 846 24.98 0 32 72 -4.4 24
00:35 1017 30.03 846 24.98 -0.1 31.7 69 -5.2 22.6
00:40 1017 30.03 846 24.98 0.1 32.1 68 -5.1 22.9
00:45 1017 30.03 846 24.98 0.3 32.5 66 -5.3 22.4
00:50 1017 30.03 846 24.98 0.3 32.5 70 -4.6 23.8
00:55 1017 30.03 846 24.98 -0 32 71 -4.7 23.5
01:00 1017 30.03 846 24.98 -0.1 31.8 70 -5 23.1
01:05 1017 30.03 846 24.98 -0.1 31.8 70 -5 23
01:10 1017 30.03 846 24.98 0.1 32.2 65 -5.7 21.8
01:15 1017 30.03 846 24.98 0.4 32.7 66 -5.2 22.7
01:20 1017 30.03 846 24.98 0.4 32.6 64 -5.6 21.9
01:25 1017 30.03 846 24.98 0.5 32.9 64 -5.6 21.9
01:30 1016 30 846 24.98 0.5 32.9 64 -5.5 22.1
01:35 1016 30 846 24.98 0.5 32.9 63 -5.8 21.6
01:40 1016 30 846 24.98 0.6 33.1 64 -5.5 22.1
01:45 1017 30.03 846 24.98 0.5 32.9 65 -5.3 22.5
01:50 1017 30.03 846 24.98 0.4 32.7 66 -5.3 22.4
01:55 1017 30.03 846 24.98 0.4 32.6 66 -5.3 22.5
02:00 1017 30.03 846 24.98 0.4 32.6 66 -5.2 22.6
02:05 1017 30.03 846 24.98 0.2 32.3 67 -5.2 22.7
02:10 1017 30.03 846 24.98 -0.1 31.8 68 -5.3 22.4
02:15 1017 30.03 846 24.98 -0.4 31.3 69 -5.4 22.3
02:20 1017 30.03 846 24.98 -0.6 31 68 -5.8 21.5
02:25 1017 30.03 846 24.98 -0.4 31.3 66 -5.9 21.3
02:30 1017 30.03 846 24.98 -0.2 31.6 66 -5.8 21.5
02:35 1017 30.03 846 24.98 -0.1 31.8 65 -5.9 21.4
02:40 1017 30.03 846 24.98 0 32 64 -5.9 21.3
02:45 1017 30.03 846 24.98 0 32.1 64 -6 21.1
02:50 1017 30.03 846 24.98 0.1 32.1 63 -6.2 20.9
02:55 1017 30.03 846 24.98 0.2 32.4 63 -6 21.1
03:00 1017 30.03 846 24.98 0.3 32.6 63 -6 21.2
03:05 1017 30.03 846 24.98 0.4 32.6 63 -6 21.3
03:10 1017 30.03 846 24.98 0.2 32.4 64 -5.8 21.6
03:15 1017 30.03 846 24.98 0.2 32.3 63 -6 21.2
03:20 1017 30.03 846 24.98 0.1 32.2 64 -6 21.2
03:25 1017 30.03 846 24.98 0.2 32.3 63 -6 21.2
03:30 1017 30.03 846 24.98 0.1 32.2 64 -5.9 21.3
03:35 1017 30.03 846 24.98 -0.1 31.8 64 -6.1 21
03:40 1017 30.03 846 24.98 -0.3 31.4 66 -6 21.2
03:45 1017 30.03 846 24.98 -0.5 31.1 66 -6.1 21
03:50 1017 30.03 846 24.98 -0.9 30.4 67 -6.2 20.9
03:55 1017 30.03 846 24.98 -1.1 30 68 -6.3 20.7
04:00 1017 30.03 846 24.98 -1.3 29.6 68 -6.4 20.5
04:05 1017 30.03 846 24.98 -1.6 29.2 69 -6.5 20.3
04:10 1017 30.03 846 24.98 -1.9 28.6 71 -6.6 20.2
04:15 1017 30.03 846 24.98 -2 28.4 70 -6.8 19.8
04:20 1017 30.03 846 24.98 -2.3 27.8 70 -7.1 19.2
04:25 1017 30.03 846 24.98 -3.1 26.4 75 -7 19.4
04:30 1017 30.03 846 24.98 -3.5 25.7 76 -7.1 19.2
04:35 1017 30.03 846 24.98 -3.4 25.9 76 -7.1 19.2
04:40 1017 30.03 846 24.98 -3 26.6 73 -7.1 19.1
04:45 1017 30.03 846 24.98 -2.6 27.3 72 -7 19.4
04:50 1017 30.03 846 24.98 -2.3 27.9 71 -6.8 19.7
04:55 1017 30.03 846 24.98 -2.5 27.6 71 -7.1 19.3
05:00 1017 30.03 846 24.98 -2.7 27.2 74 -6.8 19.8
05:05 1017 30.03 846 24.98 -2.5 27.5 72 -6.9 19.5
05:10 1017 30.03 846 24.98 -2.4 27.6 72 -6.8 19.8
05:15 1017 30.03 846 24.98 -2.7 27.1 74 -6.8 19.7
05:20 1017 30.03 846 24.98 -3 26.7 75 -6.8 19.7
05:25 1017 30.03 846 24.98 -2.9 26.7 76 -6.6 20.1
05:30 1017 30.03 846 24.98 -3 26.6 76 -6.7 20
05:35 1017 30.03 846 24.98 -2.7 27.1 74 -6.7 20
05:40 1017 30.03 846 24.98 -2.6 27.2 74 -6.6 20
05:45 1017 30.03 846 24.98 -2.9 26.8 75 -6.8 19.8
05:50 1016 30 846 24.98 -3.2 26.2 76 -6.8 19.7
05:55 1016 30 846 24.98 -3.5 25.6 76 -7.2 19
06:00 1016 30 846 24.98 -3.4 25.9 75 -7.3 18.9
06:05 1016 30 846 24.98 -3.1 26.5 74 -7.1 19.2
06:10 1016 30 846 24.98 -2.9 26.7 73 -7 19.3
06:15 1016 30 846 24.98 -2.4 27.7 72 -6.8 19.7
06:20 1016 30 846 24.98 -2.4 27.7 71 -6.9 19.6
06:25 1016 30 846 24.98 -2.1 28.2 70 -6.8 19.8
06:30 1016 30 846 24.98 -2.1 28.2 70 -6.8 19.7
06:35 1016 30 846 24.98 -2.1 28.2 71 -6.8 19.8
06:40 1016 30 846 24.98 -2.3 27.9 71 -6.9 19.7
06:45 1016 30 846 24.98 -2.5 27.5 72 -6.9 19.6
06:50 1016 30 846 24.98 -2.5 27.5 72 -6.8 19.7
06:55 1016 30 846 24.98 -2.5 27.5 73 -6.8 19.8
07:00 1016 30 846 24.98 -2.4 27.6 72 -6.8 19.7
07:05 1016 30 846 24.98 -2.2 28 71 -6.7 19.9
07:10 1016 30 846 24.98 -1.7 29 68 -6.8 19.8
07:15 1016 30 846 24.98 -1.5 29.3 68 -6.8 19.8
07:20 1016 30 846 24.98 -1.1 30 65 -6.9 19.6
07:25 1016 30 846 24.98 -0.9 30.4 65 -6.7 20
07:30 1016 30 846 24.98 -1.1 30 66 -6.8 19.8
07:35 1016 30 845 24.95 -1.3 29.6 67 -6.7 19.9
07:40 1016 30 845 24.95 -1.6 29.1 67 -6.9 19.5
07:45 1016 30 845 24.95 -1.7 29 67 -7.1 19.2
07:50 1016 30 846 24.98 -1.5 29.3 66 -7 19.3
07:55 1016 30 846 24.98 -1.4 29.4 66 -7 19.4
08:00 1016 30 845 24.95 -1.5 29.3 66 -7 19.3
08:05 1016 30 845 24.95 -1.5 29.2 66 -7.1 19.2
08:10 1016 30 845 24.95 -1.6 29.1 66 -7.2 19
08:15 1016 30 845 24.95 -1.5 29.2 66 -7.1 19.1
08:20 1016 30 845 24.95 -1.5 29.2 66 -7.1 19.2
08:25 1016 30 845 24.95 -1.6 29.1 66 -7.2 19.1
08:30 1016 30 846 24.98 -1.5 29.3 66 -7.1 19.2
08:35 1016 30 845 24.95 -1.7 29 68 -6.8 19.7
08:40 1016 30 845 24.95 -1.8 28.7 69 -6.9 19.7
08:45 1016 30 846 24.98 -1.7 28.9 67 -7.1 19.3
08:50 1016 30 846 24.98 -1.5 29.3 65 -7.2 19.1
08:55 1016 30 846 24.98 -1.4 29.4 65 -7.3 18.9
09:00 1016 30 845 24.95 -1.2 29.9 66 -6.7 20
09:05 1016 30 846 24.98 -1 30.3 63 -7.1 19.3
09:10 1016 30 845 24.95 -0.8 30.5 66 -6.4 20.5
09:15 1016 30 845 24.95 -0.7 30.8 62 -7 19.3
09:20 1016 30 845 24.95 -0.2 31.7 63 -6.4 20.5
09:25 1016 30 845 24.95 -0.7 30.7 66 -6.4 20.6
09:30 1016 30 845 24.95 -1.3 29.6 66 -6.8 19.7
09:35 1016 30 845 24.95 -1.1 30 65 -6.9 19.6
09:40 1016 30 845 24.95 -1.6 29.1 68 -6.7 19.9
09:45 1016 30 845 24.95 -1.9 28.5 68 -7.1 19.3
09:50 1016 30 845 24.95 -2.1 28.2 70 -6.8 19.7
09:55 1016 30 845 24.95 -1.7 28.9 69 -6.7 20
10:00 1016 30 845 24.95 -1.9 28.7 69 -6.7 19.9
10:05 1016 30 845 24.95 -1.8 28.7 69 -6.9 19.7
10:10 1016 30 845 24.95 -1.7 29 68 -6.9 19.6
10:15 1016 30 845 24.95 -1.6 29.2 67 -6.8 19.7
10:20 1016 30 845 24.95 -1.5 29.3 69 -6.5 20.3
10:25 1016 30 845 24.95 -2.1 28.1 72 -6.5 20.2
10:30 1016 30 845 24.95 -2.5 27.6 72 -6.9 19.7
10:35 1016 30 845 24.95 -1.9 28.6 69 -6.9 19.6
10:40 1016 30 845 24.95 -1.8 28.8 70 -6.5 20.3
10:45 1016 30 845 24.95 -1.8 28.8 68 -6.9 19.5
10:50 1016 30 845 24.95 -1.9 28.6 68 -7.1 19.3
10:55 1016 30 845 24.95 -1.7 28.9 67 -7 19.4
11:00 1016 30 845 24.95 -1.4 29.4 67 -6.7 19.9
11:05 1016 30 845 24.95 -1.3 29.6 68 -6.4 20.4
11:10 1016 30 845 24.95 -0.9 30.5 67 -6.2 20.9
11:15 1016 30 845 24.95 -0.7 30.8 67 -6 21.3
11:20 1016 30 845 24.95 -0.7 30.8 68 -5.9 21.3
11:25 1016 30 845 24.95 -0.5 31.2 67 -5.9 21.3
11:30 1016 30 845 24.95 -0.3 31.5 67 -5.7 21.7
11:35 1016 30 845 24.95 -0.2 31.6 66 -5.9 21.4
11:40 1016 30 845 24.95 0.1 32.2 65 -5.8 21.5
11:45 1016 30 845 24.95 0.6 33.1 61 -6 21.3
11:50 1016 30 845 24.95 1.2 34.1 60 -5.8 21.5
11:55 1016 30 845 24.95 1.7 35.1 59 -5.5 22.1
12:00 1016 30 845 24.95 1.4 34.5 61 -5.4 22.3
12:05 1016 30 845 24.95 1 33.8 64 -5.1 22.8
12:10 1016 30 845 24.95 0.6 33.2 62 -5.9 21.4
12:15 1016 30 845 24.95 1.7 35 59 -5.4 22.2
12:20 1016 30 845 24.95 1.2 34.2 62 -5.2 22.6
12:25 1016 30 845 24.95 1 33.8 63 -5.2 22.6
12:30 1015 29.97 845 24.95 1.3 34.3 61 -5.4 22.3
12:35 1015 29.97 845 24.95 1.8 35.3 60 -5.1 22.8
12:40 1015 29.97 844 24.92 2.3 36.2 57 -5.4 22.3
12:45 1015 29.97 844 24.92 2.3 36.1 58 -5.2 22.6
12:50 1015 29.97 844 24.92 2.8 37.1 53 -5.7 21.7
12:55 1015 29.97 844 24.92 3.1 37.6 54 -5.4 22.3
13:00 1015 29.97 844 24.92 3.6 38.5 52 -5.4 22.2
13:05 1015 29.97 844 24.92 4 39.2 52 -5 23
13:10 1015 29.97 844 24.92 4.1 39.4 51 -5 23
13:15 1015 29.97 844 24.92 3.8 38.9 55 -4.5 23.9
13:20 1015 29.97 844 24.92 3.4 38.1 54 -4.9 23.1
13:25 1015 29.97 844 24.92 3.5 38.3 52 -5.5 22.1
13:30 1015 29.97 844 24.92 4.2 39.5 49 -5.6 21.9
13:35 1015 29.97 844 24.92 4.6 40.3 49 -5.1 22.7
13:40 1014 29.94 844 24.92 4.8 40.6 50 -4.8 23.4
13:45 1014 29.94 844 24.92 4.8 40.6 48 -5.3 22.4
13:50 1014 29.94 843 24.89 5.4 41.7 45 -5.5 22
13:55 1014 29.94 843 24.89 5.2 41.3 47 -5.3 22.5
14:00 1014 29.94 843 24.89 4.6 40.3 48 -5.5 22.1
14:05 1014 29.94 843 24.89 5.1 41.2 47 -5.3 22.5
14:10 1014 29.94 843 24.89 4.9 40.8 48 -5.3 22.4
14:15 1014 29.94 843 24.89 4.6 40.3 49 -5.1 22.7
14:20 1014 29.94 843 24.89 4.3 39.8 50 -5.3 22.4
14:25 1014 29.94 843 24.89 4.3 39.7 48 -5.7 21.8
14:30 1014 29.94 843 24.89 4.4 39.9 48 -5.6 21.9
14:35 1014 29.94 843 24.89 4.5 40.1 46 -6 21.2
14:40 1014 29.94 843 24.89 5.9 42.7 42 -6 21.3
14:45 1014 29.94 843 24.89 6.4 43.4 42 -5.5 22
14:50 1014 29.94 843 24.89 6.7 44.1 43 -5.1 22.9
14:55 1014 29.94 843 24.89 6.3 43.3 47 -4.2 24.5
15:00 1014 29.94 843 24.89 5.3 41.5 50 -4.3 24.3
15:05 1014 29.94 843 24.89 4.8 40.7 50 -4.8 23.4
15:10 1014 29.94 843 24.89 4.9 40.9 48 -5.3 22.5
15:15 1014 29.94 843 24.89 5.5 41.9 47 -4.9 23.2
15:20 1014 29.94 843 24.89 5.4 41.7 48 -4.9 23.2
15:25 1014 29.94 843 24.89 5.7 42.3 45 -5.4 22.3
15:30 1014 29.94 843 24.89 5.7 42.3 47 -4.7 23.5
15:35 1014 29.94 843 24.89 5.2 41.3 48 -5 22.9
15:40 1014 29.94 843 24.89 5.6 42.1 48 -4.6 23.8
15:45 1014 29.94 843 24.89 5.4 41.8 49 -4.4 24.1
15:50 1014 29.94 843 24.89 4.8 40.7 50 -4.7 23.6
15:55 1014 29.94 843 24.89 4.4 40 51 -4.7 23.5
16:00 1014 29.94 843 24.89 4.1 39.4 53 -4.6 23.7
16:05 1014 29.94 843 24.89 3.7 38.7 54 -4.8 23.4
16:10 1014 29.94 843 24.89 3.6 38.5 55 -4.6 23.8
16:15 1014 29.94 843 24.89 3.2 37.8 54 -5.1 22.8
16:20 1014 29.94 843 24.89 3 37.4 56 -5 23
16:25 1014 29.94 843 24.89 2.6 36.7 56 -5.3 22.4
16:30 1014 29.94 843 24.89 2.6 36.7 56 -5.3 22.4
16:35 1014 29.94 843 24.89 2.4 36.4 60 -4.6 23.8
16:40 1014 29.94 843 24.89 2.3 36.2 59 -4.9 23.2
16:45 1014 29.94 843 24.89 2.4 36.4 60 -4.6 23.8
16:50 1014 29.94 843 24.89 2.3 36.1 61 -4.4 24
16:55 1014 29.94 843 24.89 2.3 36.1 63 -4.1 24.7
17:00 1014 29.94 843 24.89 2.2 36 63 -4.1 24.6
17:05 1014 29.94 843 24.89 2.1 35.8 63 -4.2 24.5
17:10 1014 29.94 843 24.89 2.1 35.9 62 -4.3 24.3
17:15 1014 29.94 843 24.89 2.2 35.9 62 -4.3 24.3
17:20 1014 29.94 843 24.89 2.1 35.8 62 -4.4 24.1
17:25 1014 29.94 843 24.89 2.1 35.9 63 -4.1 24.6
17:30 1014 29.94 843 24.89 2.3 36.1 64 -3.9 25
17:35 1014 29.94 843 24.89 2.2 36 65 -3.7 25.4
17:40 1014 29.94 843 24.89 2.1 35.7 65 -3.8 25.1
17:45 1014 29.94 843 24.89 2.1 35.9 65 -3.7 25.3
17:50 1014 29.94 843 24.89 2.1 35.8 66 -3.7 25.4
17:55 1014 29.94 844 24.92 1.9 35.3 66 -3.9 25.1
18:00 1014 29.94 844 24.92 1.9 35.4 67 -3.7 25.4
18:05 1014 29.94 844 24.92 1.9 35.5 67 -3.5 25.8
18:10 1014 29.94 844 24.92 1.9 35.3 68 -3.5 25.8
18:15 1014 29.94 844 24.92 1.6 35 68 -3.5 25.6
18:20 1014 29.94 844 24.92 1.5 34.7 70 -3.4 25.8
18:25 1015 29.97 844 24.92 1.4 34.5 72 -3.1 26.5
18:30 1015 29.97 844 24.92 1.5 34.6 73 -2.9 26.7
18:35 1015 29.97 844 24.92 1.5 34.7 73 -2.9 26.8
18:40 1015 29.97 844 24.92 1.6 34.8 72 -2.9 26.7
18:45 1015 29.97 844 24.92 1.4 34.5 73 -2.9 26.9
18:50 1015 29.97 844 24.92 1.1 33.9 71 -3.5 25.6
18:55 1015 29.97 844 24.92 1.2 34.1 71 -3.5 25.7
19:00 1015 29.97 844 24.92 1.4 34.5 71 -3.3 26.1
19:05 1015 29.97 844 24.92 1.6 34.8 72 -3 26.6
19:10 1015 29.97 844 24.92 1.6 35 74 -2.5 27.5
19:15 1015 29.97 844 24.92 1.9 35.4 73 -2.5 27.6
19:20 1015 29.97 844 24.92 2 35.5 75 -2 28.4
19:25 1015 29.97 844 24.92 2 35.5 77 -1.7 29
19:30 1015 29.97 844 24.92 2 35.7 78 -1.5 29.4
19:35 1015 29.97 844 24.92 2.1 35.8 79 -1.2 29.8
19:40 1015 29.97 844 24.92 1.9 35.4 82 -0.9 30.5
19:45 1015 29.97 844 24.92 1.5 34.7 85 -0.8 30.6
19:50 1015 29.97 844 24.92 1.3 34.4 86 -0.7 30.7
19:55 1015 29.97 844 24.92 1.3 34.3 87 -0.7 30.7
20:00 1015 29.97 844 24.92 1.2 34.2 87 -0.7 30.8
20:05 1015 29.97 844 24.92 1.2 34.2 87 -0.7 30.7
20:10 1015 29.97 844 24.92 1.2 34.2 86 -0.9 30.4
20:15 1015 29.97 844 24.92 1.3 34.3 84 -1.1 30
20:20 1015 29.97 844 24.92 1.4 34.4 84 -1.1 30
20:25 1015 29.97 844 24.92 1.4 34.4 83 -1.3 29.7
20:30 1015 29.97 844 24.92 1.2 34.2 82 -1.4 29.4
20:35 1015 29.97 844 24.92 1.4 34.4 81 -1.5 29.3
20:40 1015 29.97 844 24.92 1.5 34.6 81 -1.4 29.4
20:45 1015 29.97 844 24.92 1.5 34.6 81 -1.5 29.3
20:50 1015 29.97 844 24.92 1.4 34.6 81 -1.5 29.4
20:55 1015 29.97 844 24.92 1.4 34.6 81 -1.5 29.4
21:00 1015 29.97 844 24.92 1.5 34.7 81 -1.3 29.6
21:05 1015 29.97 844 24.92 1.6 34.8 81 -1.3 29.6
21:10 1015 29.97 844 24.92 1.6 34.9 81 -1.3 29.6
21:15 1015 29.97 844 24.92 1.5 34.7 81 -1.4 29.5
21:20 1015 29.97 844 24.92 1.2 34.1 82 -1.6 29.2
21:25 1015 29.97 845 24.95 1 33.8 82 -1.7 29
21:30 1015 29.97 844 24.92 0.7 33.3 83 -1.9 28.6
21:35 1015 29.97 844 24.92 0.4 32.8 84 -1.9 28.6
21:40 1015 29.97 844 24.92 0.2 32.4 85 -2.1 28.3
21:45 1015 29.97 845 24.95 0.4 32.7 84 -2.1 28.3
21:50 1015 29.97 845 24.95 0.5 33 83 -2 28.4
21:55 1015 29.97 845 24.95 0.6 33 83 -2.1 28.3
22:00 1015 29.97 844 24.92 0.4 32.6 83 -2.1 28.1
22:05 1015 29.97 844 24.92 0.4 32.7 84 -2.1 28.3
22:10 1015 29.97 844 24.92 0.2 32.4 85 -2 28.4
22:15 1015 29.97 844 24.92 0.4 32.6 84 -2.1 28.3
22:20 1015 29.97 844 24.92 0.3 32.6 85 -1.9 28.6
22:25 1015 29.97 844 24.92 0.1 32.1 86 -2 28.4
22:30 1015 29.97 844 24.92 -0.3 31.5 88 -2 28.3
22:35 1015 29.97 844 24.92 -0.1 31.8 87 -2 28.4
22:40 1015 29.97 844 24.92 0 32.1 86 -2 28.3
22:45 1015 29.97 844 24.92 -0 32 85 -2.3 27.9
22:50 1015 29.97 844 24.92 -0.3 31.5 86 -2.3 27.8
22:55 1015 29.97 844 24.92 -0.2 31.6 85 -2.4 27.7
23:00 1015 29.97 844 24.92 -0.3 31.4 84 -2.6 27.3
23:05 1015 29.97 844 24.92 -0.4 31.3 84 -2.7 27.1
23:10 1015 29.97 844 24.92 -0.6 30.9 85 -2.8 26.9
23:15 1015 29.97 844 24.92 -0.6 31 84 -3 26.7
23:20 1015 29.97 844 24.92 -0.3 31.4 84 -2.7 27.1
23:25 1015 29.97 844 24.92 -0.2 31.6 84 -2.6 27.3
23:30 1015 29.97 844 24.92 -0.1 31.9 83 -2.6 27.4
23:35 1015 29.97 844 24.92 -0.1 31.8 83 -2.6 27.3
23:40 1015 29.97 844 24.92 -0.2 31.7 82 -2.8 26.9
23:45 1015 29.97 845 24.95 -0.6 30.9 85 -2.9 26.8
23:50 1015 29.97 845 24.95 -0.7 30.7 85 -3 26.6
23:55 1015 29.97 845 24.95 -0.3 31.5 83 -2.9 26.8
24:00 1015 29.97 845 24.95 0.3 32.5 79 -3 26.7